• Join FlightAware (Why Join?)
  • Login
  • US Flag 
02:02PM EDT


 

Airport Tracker/Info


-or-


 

Live Flight TrackerFlight Track Log ✈ CES9734 ✈ 04-Jul-2013 ✈ ZGSZ / SZX - ZPPP / KMG

Flight Track Log - Related Links

Times and Time Zones

All times are in EDT time to prevent confusion due to time zone crossing. See the CES9734 flight status page for this flight to view local times or setup timezone preferences in your user account.

Time Position Orientation Groundspeed Altitude Reporting Facility
EDT Latitude Longitude Course Direction KTS MPH feet Rate Location/Type
07:10PM 22.8383 113.0567 286° West  Level Estimated
07:11PM 22.8664 112.9485 286° West  Level Estimated
07:12PM 22.8944 112.8403 286° West  Level Estimated
07:13PM 22.9224 112.7321 286° West  Level Estimated
07:14PM 22.9503 112.6238 286° West  Level Estimated
07:15PM 22.9781 112.5155 286° West  Level Estimated
07:16PM 23.0058 112.4072 286° West  Level Estimated
07:17PM 23.0335 112.2988 286° West  Level Estimated
07:18PM 23.0611 112.1903 285° West  Level Estimated
07:19PM 23.0886 112.0818 285° West  Level Estimated
07:20PM 23.1160 111.9733 285° West  Level Estimated
07:21PM 23.1434 111.8647 285° West  Level Estimated
07:22PM 23.1707 111.7561 285° West  Level Estimated
07:23PM 23.1979 111.6474 285° West  Level Estimated
07:24PM 23.2251 111.5387 285° West  Level Estimated
07:25PM 23.2521 111.4299 285° West  Level Estimated
07:26PM 23.2791 111.3211 285° West  Level Estimated
07:27PM 23.3060 111.2122 285° West  Level Estimated
07:28PM 23.3329 111.1033 285° West  Level Estimated
07:29PM 23.3597 110.9944 285° West  Level Estimated
07:30PM 23.3864 110.8854 285° West  Level Estimated
07:31PM 23.4130 110.7764 285° West  Level Estimated
07:32PM 23.4395 110.6673 285° West  Level Estimated
07:33PM 23.4660 110.5582 285° West  Level Estimated
07:34PM 23.4924 110.4491 285° West  Level Estimated
07:35PM 23.5187 110.3399 285° West  Level Estimated
07:36PM 23.5450 110.2306 285° West  Level Estimated
07:37PM 23.5711 110.1213 285° West  Level Estimated
07:38PM 23.5972 110.0120 285° West  Level Estimated
07:39PM 23.6232 109.9026 285° West  Level Estimated
07:40PM 23.6491 109.7932 285° West  Level Estimated
07:41PM 23.6750 109.6837 284° West  Level Estimated
07:42PM 23.7008 109.5742 284° West  Level Estimated
07:43PM 23.7265 109.4647 284° West  Level Estimated
07:44PM 23.7521 109.3551 284° West  Level Estimated
07:45PM 23.7777 109.2455 284° West  Level Estimated
07:46PM 23.8031 109.1358 284° West  Level Estimated
07:47PM 23.8285 109.0261 284° West  Level Estimated
07:48PM 23.8538 108.9163 284° West  Level Estimated
07:49PM 23.8791 108.8065 284° West  Level Estimated
07:50PM 23.9042 108.6966 284° West  Level Estimated
07:51PM 23.9293 108.5867 284° West  Level Estimated
07:52PM 23.9543 108.4768 284° West  Level Estimated
07:53PM 23.9793 108.3668 284° West  Level Estimated
07:54PM 24.0041 108.2568 284° West  Level Estimated
07:55PM 24.0289 108.1468 284° West  Level Estimated
07:56PM 24.0536 108.0367 284° West  Level Estimated
07:57PM 24.0782 107.9265 284° West  Level Estimated
07:58PM 24.1027 107.8163 284° West  Level Estimated
07:59PM 24.1272 107.7061 284° West  Level Estimated
08:00PM 24.1515 107.5958 284° West  Level Estimated
08:01PM 24.1758 107.4855 284° West  Level Estimated
08:02PM 24.2001 107.3751 284° West  Level Estimated
08:03PM 24.2242 107.2647 284° West  Level Estimated
08:04PM 24.2483 107.1543 283° West  Level Estimated
08:05PM 24.2722 107.0438 283° West  Level Estimated
08:06PM 24.2961 106.9333 283° West  Level Estimated
08:07PM 24.3200 106.8227 283° West  Level Estimated
08:08PM 24.3437 106.7121 283° West  Level Estimated
08:09PM 24.3674 106.6015 283° West  Level Estimated
08:10PM 24.3909 106.4908 283° West  Level Estimated
08:11PM 24.4144 106.3801 283° West  Level Estimated
08:12PM 24.4379 106.2693 283° West  Level Estimated
08:13PM 24.4612 106.1585 283° West  Level Estimated
08:14PM 24.4844 106.0476 283° West  Level Estimated
08:15PM 24.5076 105.9367 283° West  Level Estimated
08:16PM 24.5307 105.8258 283° West  Level Estimated
08:17PM 24.5537 105.7148 283° West  Level Estimated
08:18PM 24.5766 105.6038 283° West  Level Estimated
08:19PM 24.5995 105.4927 283° West  Level Estimated
08:20PM 24.6223 105.3816 283° West  Level Estimated
08:21PM 24.6450 105.2705 283° West  Level Estimated
08:22PM 24.6675 105.1593 283° West  Level Estimated
08:23PM 24.6901 105.0481 283° West  Level Estimated
08:24PM 24.7125 104.9368 283° West  Level Estimated
08:25PM 24.7349 104.8255 282° West  Level Estimated
08:26PM 24.7572 104.7142 282° West  Level Estimated
08:27PM 24.7793 104.6028 282° West  Level Estimated
08:28PM 24.8015 104.4914 282° West  Level Estimated
08:29PM 24.8235 104.3799 282° West  Level Estimated
08:30PM 24.8454 104.2684 282° West  Level Estimated
08:31PM 24.8673 104.1569 282° West  Level Estimated
08:32PM 24.8891 104.0453 282° West  Level Estimated
08:33PM 24.9108 103.9337 282° West  Level Estimated
08:34PM 24.9324 103.8220 282° West  Level Estimated
08:35PM 24.9539 103.7103 282° West  Level Estimated
08:36PM 24.9753 103.5986 282° West  Level Estimated
08:37PM 24.9967 103.4868 282° West  Level Estimated
08:38PM 25.0180 103.3750 282° West  Level Estimated
08:39PM 25.0392 103.2632 282° West  Level Estimated
08:40PM 25.0603 103.1513 282° West  Level Estimated
08:41PM 25.0813 103.0393 282° West  Level Estimated
08:42PM 25.1019 102.9292 282° West  Level Estimated
08:43PM 25.1019 102.9292 326° Northwest  Level Estimated
08:44PM 25.1019 102.9292 326° Northwest  Level Estimated
08:45PM 25.1019 102.9292 326° Northwest  Level Estimated
08:46PM 25.1019 102.9292 326° Northwest  Level Estimated
08:47PM 25.1019 102.9292 326° Northwest  Level Estimated
08:48PM 25.1019 102.9292 326° Northwest  Level Estimated
08:49PM 25.1019 102.9292 326° Northwest  Level Estimated
08:50PM 25.1019 102.9292 326° Northwest  Level Estimated
08:51PM 25.1019 102.9292 326° Northwest  Level Estimated
08:52PM 25.1019 102.9292 326° Northwest  Level Estimated
08:53PM 25.1019 102.9292 326° Northwest  Level Estimated
08:54PM 25.1019 102.9292 326° Northwest  Level Estimated
08:55PM 25.1019 102.9292 326° Northwest  Level Estimated
08:56PM 25.1019 102.9292 326° Northwest  Level Estimated
08:57PM 25.1019 102.9292 326° Northwest  Level Estimated
08:58PM 25.1019 102.9292 326° Northwest  Level Estimated